sensor_id;sensor_type;location;lat;lon;timestamp;temperature;humidity
46336;DHT22;31365;48.858;8.530;2023-02-25T00:01:44;6.20;99.90
46336;DHT22;31365;48.858;8.530;2023-02-25T00:04:29;6.20;99.90
46336;DHT22;31365;48.858;8.530;2023-02-25T00:11:25;6.20;99.90
46336;DHT22;31365;48.858;8.530;2023-02-25T00:13:54;6.20;99.90
46336;DHT22;31365;48.858;8.530;2023-02-25T00:16:23;6.10;99.90
46336;DHT22;31365;48.858;8.530;2023-02-25T00:18:52;6.10;99.90
46336;DHT22;31365;48.858;8.530;2023-02-25T00:21:21;6.10;99.90
46336;DHT22;31365;48.858;8.530;2023-02-25T00:26:45;6.10;99.90
46336;DHT22;31365;48.858;8.530;2023-02-25T00:29:13;6.00;99.90
46336;DHT22;31365;48.858;8.530;2023-02-25T00:31:44;6.00;99.90
46336;DHT22;31365;48.858;8.530;2023-02-25T00:34:13;6.10;99.90
46336;DHT22;31365;48.858;8.530;2023-02-25T00:36:43;6.00;99.90
46336;DHT22;31365;48.858;8.530;2023-02-25T00:39:12;6.20;99.90
46336;DHT22;31365;48.858;8.530;2023-02-25T00:45:01;6.00;99.90
46336;DHT22;31365;48.858;8.530;2023-02-25T00:47:29;6.00;99.90
46336;DHT22;31365;48.858;8.530;2023-02-25T00:49:57;6.10;99.90
46336;DHT22;31365;48.858;8.530;2023-02-25T00:52:25;5.90;99.90
46336;DHT22;31365;48.858;8.530;2023-02-25T00:54:54;6.20;99.90
46336;DHT22;31365;48.858;8.530;2023-02-25T00:57:23;5.90;99.90
46336;DHT22;31365;48.858;8.530;2023-02-25T00:59:52;5.90;99.90
46336;DHT22;31365;48.858;8.530;2023-02-25T01:02:21;5.80;99.90
46336;DHT22;31365;48.858;8.530;2023-02-25T01:04:50;6.20;99.90
46336;DHT22;31365;48.858;8.530;2023-02-25T01:07:18;5.90;99.90
46336;DHT22;31365;48.858;8.530;2023-02-25T01:09:47;5.90;99.90
46336;DHT22;31365;48.858;8.530;2023-02-25T01:12:15;5.90;99.90
46336;DHT22;31365;48.858;8.530;2023-02-25T01:14:44;6.10;99.90
46336;DHT22;31365;48.858;8.530;2023-02-25T01:17:12;6.00;99.90
46336;DHT22;31365;48.858;8.530;2023-02-25T01:19:42;6.10;99.90
46336;DHT22;31365;48.858;8.530;2023-02-25T01:22:13;5.90;99.90
46336;DHT22;31365;48.858;8.530;2023-02-25T01:24:41;6.00;99.90
46336;DHT22;31365;48.858;8.530;2023-02-25T01:47:54;5.80;99.90
46336;DHT22;31365;48.858;8.530;2023-02-25T01:50:28;5.70;99.90
46336;DHT22;31365;48.858;8.530;2023-02-25T01:53:02;5.70;99.90
46336;DHT22;31365;48.858;8.530;2023-02-25T01:55:32;5.70;99.90
46336;DHT22;31365;48.858;8.530;2023-02-25T01:58:00;5.80;99.90
46336;DHT22;31365;48.858;8.530;2023-02-25T02:00:30;5.80;99.90
46336;DHT22;31365;48.858;8.530;2023-02-25T02:03:00;5.90;99.90
46336;DHT22;31365;48.858;8.530;2023-02-25T02:05:35;5.70;99.90
46336;DHT22;31365;48.858;8.530;2023-02-25T02:08:11;5.80;99.90
46336;DHT22;31365;48.858;8.530;2023-02-25T02:10:39;5.90;99.90
46336;DHT22;31365;48.858;8.530;2023-02-25T02:13:10;5.70;99.90
46336;DHT22;31365;48.858;8.530;2023-02-25T02:15:40;5.70;99.90
46336;DHT22;31365;48.858;8.530;2023-02-25T02:18:17;5.70;99.90
46336;DHT22;31365;48.858;8.530;2023-02-25T02:20:50;5.60;99.90
46336;DHT22;31365;48.858;8.530;2023-02-25T02:23:38;5.70;99.90
46336;DHT22;31365;48.858;8.530;2023-02-25T02:26:39;5.70;99.90
46336;DHT22;31365;48.858;8.530;2023-02-25T02:29:21;5.60;99.90
46336;DHT22;31365;48.858;8.530;2023-02-25T02:32:12;5.60;99.90
46336;DHT22;31365;48.858;8.530;2023-02-25T02:34:45;5.50;99.90
46336;DHT22;31365;48.858;8.530;2023-02-25T02:37:25;5.50;99.90
46336;DHT22;31365;48.858;8.530;2023-02-25T02:40:06;5.50;99.90
46336;DHT22;31365;48.858;8.530;2023-02-25T02:42:44;5.50;99.90
46336;DHT22;31365;48.858;8.530;2023-02-25T02:45:24;5.50;99.90
46336;DHT22;31365;48.858;8.530;2023-02-25T02:48:02;5.50;99.90
46336;DHT22;31365;48.858;8.530;2023-02-25T02:50:35;5.50;99.90
46336;DHT22;31365;48.858;8.530;2023-02-25T02:53:08;5.50;99.90
46336;DHT22;31365;48.858;8.530;2023-02-25T02:55:42;5.50;99.90
46336;DHT22;31365;48.858;8.530;2023-02-25T02:58:14;5.70;99.90
46336;DHT22;31365;48.858;8.530;2023-02-25T03:00:47;5.50;99.90
46336;DHT22;31365;48.858;8.530;2023-02-25T03:03:25;5.50;99.90
46336;DHT22;31365;48.858;8.530;2023-02-25T03:06:03;5.50;99.90
46336;DHT22;31365;48.858;8.530;2023-02-25T03:08:35;5.50;99.90
46336;DHT22;31365;48.858;8.530;2023-02-25T03:11:10;5.50;99.90
46336;DHT22;31365;48.858;8.530;2023-02-25T03:13:43;5.60;99.90
46336;DHT22;31365;48.858;8.530;2023-02-25T03:16:13;5.50;99.90
46336;DHT22;31365;48.858;8.530;2023-02-25T03:18:52;5.50;99.90
46336;DHT22;31365;48.858;8.530;2023-02-25T03:21:24;5.40;99.90
46336;DHT22;31365;48.858;8.530;2023-02-25T03:23:57;5.60;99.90
46336;DHT22;31365;48.858;8.530;2023-02-25T03:26:28;5.40;99.90
46336;DHT22;31365;48.858;8.530;2023-02-25T03:29:02;5.30;99.90
46336;DHT22;31365;48.858;8.530;2023-02-25T03:31:31;5.30;99.90
46336;DHT22;31365;48.858;8.530;2023-02-25T03:34:07;5.20;99.90
46336;DHT22;31365;48.858;8.530;2023-02-25T03:36:38;5.10;99.90
46336;DHT22;31365;48.858;8.530;2023-02-25T03:39:10;5.10;99.90
46336;DHT22;31365;48.858;8.530;2023-02-25T03:41:46;5.00;99.90
46336;DHT22;31365;48.858;8.530;2023-02-25T03:44:20;5.00;99.90
46336;DHT22;31365;48.858;8.530;2023-02-25T03:46:53;5.00;99.90
46336;DHT22;31365;48.858;8.530;2023-02-25T03:49:25;5.00;99.90
46336;DHT22;31365;48.858;8.530;2023-02-25T03:52:00;5.00;99.90
46336;DHT22;31365;48.858;8.530;2023-02-25T03:54:31;5.00;99.90
46336;DHT22;31365;48.858;8.530;2023-02-25T03:57:00;5.00;99.90
46336;DHT22;31365;48.858;8.530;2023-02-25T03:59:29;5.00;99.90
46336;DHT22;31365;48.858;8.530;2023-02-25T04:01:57;4.90;99.90
46336;DHT22;31365;48.858;8.530;2023-02-25T04:04:29;5.10;99.90
46336;DHT22;31365;48.858;8.530;2023-02-25T04:06:57;4.90;99.90
46336;DHT22;31365;48.858;8.530;2023-02-25T04:09:25;4.90;99.90
46336;DHT22;31365;48.858;8.530;2023-02-25T04:11:54;4.80;99.90
46336;DHT22;31365;48.858;8.530;2023-02-25T04:14:23;4.70;99.90
46336;DHT22;31365;48.858;8.530;2023-02-25T04:16:51;4.70;99.90
46336;DHT22;31365;48.858;8.530;2023-02-25T04:19:20;4.60;99.90
46336;DHT22;31365;48.858;8.530;2023-02-25T04:21:50;4.50;99.90
46336;DHT22;31365;48.858;8.530;2023-02-25T04:24:19;4.40;99.90
46336;DHT22;31365;48.858;8.530;2023-02-25T04:26:47;4.40;99.90
46336;DHT22;31365;48.858;8.530;2023-02-25T04:29:16;4.30;99.90
46336;DHT22;31365;48.858;8.530;2023-02-25T04:31:44;4.30;99.90
46336;DHT22;31365;48.858;8.530;2023-02-25T04:34:12;4.40;99.90
46336;DHT22;31365;48.858;8.530;2023-02-25T04:36:41;4.40;99.90
46336;DHT22;31365;48.858;8.530;2023-02-25T04:39:12;4.40;99.90
46336;DHT22;31365;48.858;8.530;2023-02-25T04:41:41;4.50;99.90
46336;DHT22;31365;48.858;8.530;2023-02-25T04:44:10;4.50;99.90
46336;DHT22;31365;48.858;8.530;2023-02-25T04:46:40;4.50;99.90
46336;DHT22;31365;48.858;8.530;2023-02-25T04:49:11;4.60;99.90
46336;DHT22;31365;48.858;8.530;2023-02-25T04:51:39;4.60;99.90
46336;DHT22;31365;48.858;8.530;2023-02-25T04:54:07;4.70;99.90
46336;DHT22;31365;48.858;8.530;2023-02-25T04:56:37;4.60;99.90
46336;DHT22;31365;48.858;8.530;2023-02-25T04:59:06;4.60;99.90
46336;DHT22;31365;48.858;8.530;2023-02-25T05:01:37;4.60;99.90
46336;DHT22;31365;48.858;8.530;2023-02-25T05:04:06;4.60;99.90
46336;DHT22;31365;48.858;8.530;2023-02-25T05:06:34;4.70;99.90
46336;DHT22;31365;48.858;8.530;2023-02-25T05:09:06;4.60;99.90
46336;DHT22;31365;48.858;8.530;2023-02-25T05:11:37;4.70;99.90
46336;DHT22;31365;48.858;8.530;2023-02-25T05:14:05;4.80;99.90
46336;DHT22;31365;48.858;8.530;2023-02-25T05:16:34;4.70;99.90
46336;DHT22;31365;48.858;8.530;2023-02-25T05:19:02;4.70;99.90
46336;DHT22;31365;48.858;8.530;2023-02-25T05:21:32;4.80;99.90
46336;DHT22;31365;48.858;8.530;2023-02-25T05:24:00;4.80;99.90
46336;DHT22;31365;48.858;8.530;2023-02-25T05:26:29;4.70;99.90
46336;DHT22;31365;48.858;8.530;2023-02-25T05:28:59;4.70;99.90
46336;DHT22;31365;48.858;8.530;2023-02-25T05:31:28;4.70;99.90
46336;DHT22;31365;48.858;8.530;2023-02-25T05:33:57;4.70;99.90
46336;DHT22;31365;48.858;8.530;2023-02-25T05:36:27;4.70;99.90
46336;DHT22;31365;48.858;8.530;2023-02-25T05:38:57;4.70;99.90
46336;DHT22;31365;48.858;8.530;2023-02-25T05:41:28;4.70;99.90
46336;DHT22;31365;48.858;8.530;2023-02-25T05:43:57;4.70;99.90
46336;DHT22;31365;48.858;8.530;2023-02-25T05:46:27;4.70;99.90
46336;DHT22;31365;48.858;8.530;2023-02-25T05:48:56;4.70;99.90
46336;DHT22;31365;48.858;8.530;2023-02-25T05:51:24;4.70;99.90
46336;DHT22;31365;48.858;8.530;2023-02-25T05:53:52;4.60;99.90
46336;DHT22;31365;48.858;8.530;2023-02-25T05:56:21;4.60;99.90
46336;DHT22;31365;48.858;8.530;2023-02-25T05:58:55;4.60;99.90
46336;DHT22;31365;48.858;8.530;2023-02-25T06:01:25;4.60;99.90
46336;DHT22;31365;48.858;8.530;2023-02-25T06:03:55;4.60;99.90
46336;DHT22;31365;48.858;8.530;2023-02-25T06:06:24;4.60;99.90
46336;DHT22;31365;48.858;8.530;2023-02-25T06:08:54;4.50;99.90
46336;DHT22;31365;48.858;8.530;2023-02-25T06:11:23;4.50;99.90
46336;DHT22;31365;48.858;8.530;2023-02-25T06:13:56;4.50;99.90
46336;DHT22;31365;48.858;8.530;2023-02-25T06:16:27;4.50;99.90
46336;DHT22;31365;48.858;8.530;2023-02-25T06:18:58;4.50;99.90
46336;DHT22;31365;48.858;8.530;2023-02-25T06:21:28;4.50;99.90
46336;DHT22;31365;48.858;8.530;2023-02-25T06:23:57;4.50;99.90
46336;DHT22;31365;48.858;8.530;2023-02-25T06:26:26;4.50;99.90
46336;DHT22;31365;48.858;8.530;2023-02-25T06:28:55;4.50;99.90
46336;DHT22;31365;48.858;8.530;2023-02-25T06:31:24;4.50;99.90
46336;DHT22;31365;48.858;8.530;2023-02-25T06:33:53;4.50;99.90
46336;DHT22;31365;48.858;8.530;2023-02-25T06:36:22;4.60;99.90
46336;DHT22;31365;48.858;8.530;2023-02-25T06:38:51;4.60;99.90
46336;DHT22;31365;48.858;8.530;2023-02-25T06:41:20;4.60;99.90
46336;DHT22;31365;48.858;8.530;2023-02-25T06:43:51;4.60;99.90
46336;DHT22;31365;48.858;8.530;2023-02-25T06:46:21;4.70;99.90
46336;DHT22;31365;48.858;8.530;2023-02-25T06:48:53;4.70;99.90
46336;DHT22;31365;48.858;8.530;2023-02-25T06:51:21;4.70;99.90
46336;DHT22;31365;48.858;8.530;2023-02-25T06:53:51;4.80;99.90
46336;DHT22;31365;48.858;8.530;2023-02-25T06:56:20;4.70;99.90
46336;DHT22;31365;48.858;8.530;2023-02-25T06:58:49;4.70;99.90
46336;DHT22;31365;48.858;8.530;2023-02-25T07:01:18;4.70;99.90
46336;DHT22;31365;48.858;8.530;2023-02-25T07:03:46;4.80;99.90
46336;DHT22;31365;48.858;8.530;2023-02-25T07:06:18;4.70;99.90
46336;DHT22;31365;48.858;8.530;2023-02-25T07:08:48;4.70;99.90
46336;DHT22;31365;48.858;8.530;2023-02-25T07:11:25;4.80;99.90
46336;DHT22;31365;48.858;8.530;2023-02-25T07:13:55;4.90;99.90
46336;DHT22;31365;48.858;8.530;2023-02-25T07:16:24;4.80;99.90
46336;DHT22;31365;48.858;8.530;2023-02-25T07:18:53;4.80;99.90
46336;DHT22;31365;48.858;8.530;2023-02-25T07:21:23;4.90;99.90
46336;DHT22;31365;48.858;8.530;2023-02-25T07:23:55;5.30;99.90
46336;DHT22;31365;48.858;8.530;2023-02-25T07:26:23;5.00;99.90
46336;DHT22;31365;48.858;8.530;2023-02-25T07:28:54;5.00;99.90
46336;DHT22;31365;48.858;8.530;2023-02-25T07:31:24;5.00;99.90
46336;DHT22;31365;48.858;8.530;2023-02-25T07:33:54;5.10;99.90
46336;DHT22;31365;48.858;8.530;2023-02-25T07:36:24;5.10;99.90
46336;DHT22;31365;48.858;8.530;2023-02-25T07:38:54;5.10;99.90
46336;DHT22;31365;48.858;8.530;2023-02-25T07:41:22;5.10;99.90
46336;DHT22;31365;48.858;8.530;2023-02-25T07:43:51;5.20;99.90
46336;DHT22;31365;48.858;8.530;2023-02-25T07:46:19;5.40;99.90
46336;DHT22;31365;48.858;8.530;2023-02-25T07:48:48;5.20;99.90
46336;DHT22;31365;48.858;8.530;2023-02-25T07:51:17;5.20;99.90
46336;DHT22;31365;48.858;8.530;2023-02-25T07:53:49;5.20;99.90
46336;DHT22;31365;48.858;8.530;2023-02-25T07:56:20;5.30;99.90
46336;DHT22;31365;48.858;8.530;2023-02-25T07:58:50;5.40;99.90
46336;DHT22;31365;48.858;8.530;2023-02-25T08:01:20;5.30;99.90
46336;DHT22;31365;48.858;8.530;2023-02-25T08:03:51;5.40;99.90
46336;DHT22;31365;48.858;8.530;2023-02-25T08:06:21;5.50;99.90
46336;DHT22;31365;48.858;8.530;2023-02-25T08:08:52;5.50;99.90
46336;DHT22;31365;48.858;8.530;2023-02-25T08:11:21;5.60;99.90
46336;DHT22;31365;48.858;8.530;2023-02-25T08:13:52;5.60;99.90
46336;DHT22;31365;48.858;8.530;2023-02-25T08:16:22;5.70;99.90
46336;DHT22;31365;48.858;8.530;2023-02-25T08:18:51;5.60;99.90
46336;DHT22;31365;48.858;8.530;2023-02-25T08:21:21;5.70;99.90
46336;DHT22;31365;48.858;8.530;2023-02-25T08:23:52;5.70;99.90
46336;DHT22;31365;48.858;8.530;2023-02-25T08:26:21;5.80;99.90
46336;DHT22;31365;48.858;8.530;2023-02-25T08:28:51;5.80;99.90
46336;DHT22;31365;48.858;8.530;2023-02-25T08:31:20;5.90;99.90
46336;DHT22;31365;48.858;8.530;2023-02-25T08:33:50;5.90;99.90
46336;DHT22;31365;48.858;8.530;2023-02-25T08:36:19;5.90;99.90
46336;DHT22;31365;48.858;8.530;2023-02-25T08:38:51;5.80;99.90
46336;DHT22;31365;48.858;8.530;2023-02-25T08:41:20;5.80;99.90
46336;DHT22;31365;48.858;8.530;2023-02-25T08:43:51;5.70;99.90
46336;DHT22;31365;48.858;8.530;2023-02-25T08:46:22;5.80;99.90
46336;DHT22;31365;48.858;8.530;2023-02-25T08:48:52;5.70;99.90
46336;DHT22;31365;48.858;8.530;2023-02-25T08:51:23;5.80;99.90
46336;DHT22;31365;48.858;8.530;2023-02-25T08:54:01;5.60;99.90
46336;DHT22;31365;48.858;8.530;2023-02-25T08:56:31;5.80;99.90
46336;DHT22;31365;48.858;8.530;2023-02-25T08:59:00;5.80;99.90
46336;DHT22;31365;48.858;8.530;2023-02-25T09:01:29;5.70;99.90
46336;DHT22;31365;48.858;8.530;2023-02-25T09:04:11;5.70;99.90
46336;DHT22;31365;48.858;8.530;2023-02-25T09:06:40;5.70;99.90
46336;DHT22;31365;48.858;8.530;2023-02-25T09:09:10;5.90;99.90
46336;DHT22;31365;48.858;8.530;2023-02-25T09:11:39;5.90;99.90
46336;DHT22;31365;48.858;8.530;2023-02-25T09:14:08;6.00;99.90
46336;DHT22;31365;48.858;8.530;2023-02-25T09:16:37;6.00;99.90
46336;DHT22;31365;48.858;8.530;2023-02-25T09:19:05;6.10;99.90
46336;DHT22;31365;48.858;8.530;2023-02-25T09:21:35;6.00;99.90
46336;DHT22;31365;48.858;8.530;2023-02-25T09:24:06;6.00;99.90
46336;DHT22;31365;48.858;8.530;2023-02-25T09:26:37;6.00;99.90
46336;DHT22;31365;48.858;8.530;2023-02-25T09:29:06;6.10;99.90
46336;DHT22;31365;48.858;8.530;2023-02-25T09:31:35;6.20;99.90
46336;DHT22;31365;48.858;8.530;2023-02-25T09:34:06;6.30;99.90
46336;DHT22;31365;48.858;8.530;2023-02-25T09:36:41;6.20;99.90
46336;DHT22;31365;48.858;8.530;2023-02-25T09:39:09;6.30;99.90
46336;DHT22;31365;48.858;8.530;2023-02-25T09:41:41;6.30;99.90
46336;DHT22;31365;48.858;8.530;2023-02-25T09:44:16;6.40;99.90
46336;DHT22;31365;48.858;8.530;2023-02-25T09:46:48;6.30;99.90
46336;DHT22;31365;48.858;8.530;2023-02-25T09:49:22;6.40;99.90
46336;DHT22;31365;48.858;8.530;2023-02-25T09:51:57;6.40;99.90
46336;DHT22;31365;48.858;8.530;2023-02-25T09:54:32;6.50;99.90
46336;DHT22;31365;48.858;8.530;2023-02-25T09:57:08;6.50;99.90
46336;DHT22;31365;48.858;8.530;2023-02-25T09:59:44;6.60;99.90
46336;DHT22;31365;48.858;8.530;2023-02-25T10:02:18;7.00;99.90
46336;DHT22;31365;48.858;8.530;2023-02-25T10:04:57;6.80;99.90
46336;DHT22;31365;48.858;8.530;2023-02-25T10:07:55;6.90;99.90
46336;DHT22;31365;48.858;8.530;2023-02-25T10:10:29;7.00;99.90
46336;DHT22;31365;48.858;8.530;2023-02-25T10:13:10;7.00;99.90
46336;DHT22;31365;48.858;8.530;2023-02-25T10:15:47;7.10;99.90
46336;DHT22;31365;48.858;8.530;2023-02-25T10:18:25;7.20;99.90
46336;DHT22;31365;48.858;8.530;2023-02-25T10:21:06;7.20;99.90
46336;DHT22;31365;48.858;8.530;2023-02-25T10:23:50;7.10;99.90
46336;DHT22;31365;48.858;8.530;2023-02-25T10:26:34;7.00;99.90
46336;DHT22;31365;48.858;8.530;2023-02-25T10:29:10;7.00;99.90
46336;DHT22;31365;48.858;8.530;2023-02-25T10:31:44;6.90;99.90
46336;DHT22;31365;48.858;8.530;2023-02-25T10:34:18;7.00;99.90
46336;DHT22;31365;48.858;8.530;2023-02-25T10:36:51;7.10;99.90
46336;DHT22;31365;48.858;8.530;2023-02-25T10:39:21;7.20;99.90
46336;DHT22;31365;48.858;8.530;2023-02-25T10:41:50;7.20;99.90
46336;DHT22;31365;48.858;8.530;2023-02-25T10:44:20;7.10;99.90
46336;DHT22;31365;48.858;8.530;2023-02-25T10:46:50;7.10;99.90
46336;DHT22;31365;48.858;8.530;2023-02-25T10:49:21;7.20;99.90
46336;DHT22;31365;48.858;8.530;2023-02-25T10:51:55;7.20;99.90
46336;DHT22;31365;48.858;8.530;2023-02-25T10:54:26;7.20;99.90
46336;DHT22;31365;48.858;8.530;2023-02-25T10:56:57;7.30;99.90
46336;DHT22;31365;48.858;8.530;2023-02-25T10:59:30;7.20;99.90
46336;DHT22;31365;48.858;8.530;2023-02-25T11:02:03;7.40;99.90
46336;DHT22;31365;48.858;8.530;2023-02-25T11:04:46;7.40;99.90
46336;DHT22;31365;48.858;8.530;2023-02-25T11:07:28;7.60;99.90
46336;DHT22;31365;48.858;8.530;2023-02-25T11:10:04;7.40;99.90
46336;DHT22;31365;48.858;8.530;2023-02-25T11:12:39;7.30;99.90
46336;DHT22;31365;48.858;8.530;2023-02-25T11:18:17;7.20;99.90
46336;DHT22;31365;48.858;8.530;2023-02-25T11:20:50;7.10;99.90
46336;DHT22;31365;48.858;8.530;2023-02-25T11:23:22;6.90;99.90
46336;DHT22;31365;48.858;8.530;2023-02-25T11:25:55;6.90;99.90
46336;DHT22;31365;48.858;8.530;2023-02-25T11:28:27;7.00;99.90
46336;DHT22;31365;48.858;8.530;2023-02-25T11:31:06;6.80;99.90
46336;DHT22;31365;48.858;8.530;2023-02-25T11:33:38;6.80;99.90
46336;DHT22;31365;48.858;8.530;2023-02-25T11:36:11;6.70;99.90
46336;DHT22;31365;48.858;8.530;2023-02-25T11:38:40;6.60;99.90
46336;DHT22;31365;48.858;8.530;2023-02-25T11:41:31;6.60;99.90
46336;DHT22;31365;48.858;8.530;2023-02-25T11:44:09;6.50;99.90
46336;DHT22;31365;48.858;8.530;2023-02-25T11:46:48;6.60;99.90
46336;DHT22;31365;48.858;8.530;2023-02-25T11:49:25;6.50;99.90
46336;DHT22;31365;48.858;8.530;2023-02-25T11:52:17;6.60;99.90
46336;DHT22;31365;48.858;8.530;2023-02-25T11:54:54;6.90;99.90
46336;DHT22;31365;48.858;8.530;2023-02-25T11:57:36;6.60;99.90
46336;DHT22;31365;48.858;8.530;2023-02-25T12:00:17;6.60;99.90
46336;DHT22;31365;48.858;8.530;2023-02-25T12:03:01;6.70;99.90
46336;DHT22;31365;48.858;8.530;2023-02-25T12:05:43;6.80;99.90
46336;DHT22;31365;48.858;8.530;2023-02-25T12:08:22;6.90;99.90
46336;DHT22;31365;48.858;8.530;2023-02-25T12:11:25;7.00;99.90
46336;DHT22;31365;48.858;8.530;2023-02-25T12:14:48;6.90;99.90
46336;DHT22;31365;48.858;8.530;2023-02-25T12:26:58;6.50;99.90
46336;DHT22;31365;48.858;8.530;2023-02-25T12:29:45;6.40;99.90
46336;DHT22;31365;48.858;8.530;2023-02-25T12:32:35;6.30;99.90
46336;DHT22;31365;48.858;8.530;2023-02-25T12:35:29;6.30;99.90
46336;DHT22;31365;48.858;8.530;2023-02-25T12:38:21;6.20;99.90
46336;DHT22;31365;48.858;8.530;2023-02-25T12:41:19;6.20;99.90
46336;DHT22;31365;48.858;8.530;2023-02-25T12:44:03;6.20;99.90
46336;DHT22;31365;48.858;8.530;2023-02-25T12:46:50;6.20;99.90
46336;DHT22;31365;48.858;8.530;2023-02-25T12:49:41;6.20;99.90
46336;DHT22;31365;48.858;8.530;2023-02-25T12:58:25;6.40;99.90
46336;DHT22;31365;48.858;8.530;2023-02-25T13:01:18;6.50;99.90
46336;DHT22;31365;48.858;8.530;2023-02-25T13:04:06;6.70;99.90
46336;DHT22;31365;48.858;8.530;2023-02-25T13:07:03;6.80;99.90
46336;DHT22;31365;48.858;8.530;2023-02-25T13:09:57;6.90;99.90
46336;DHT22;31365;48.858;8.530;2023-02-25T13:12:37;7.00;99.90
46336;DHT22;31365;48.858;8.530;2023-02-25T13:15:21;7.20;99.90
46336;DHT22;31365;48.858;8.530;2023-02-25T13:18:10;7.10;99.90
46336;DHT22;31365;48.858;8.530;2023-02-25T13:20:52;7.20;99.90
46336;DHT22;31365;48.858;8.530;2023-02-25T13:23:37;7.30;99.90
46336;DHT22;31365;48.858;8.530;2023-02-25T13:26:26;7.40;99.90
46336;DHT22;31365;48.858;8.530;2023-02-25T13:29:12;7.40;99.90
46336;DHT22;31365;48.858;8.530;2023-02-25T13:31:55;7.40;99.90
46336;DHT22;31365;48.858;8.530;2023-02-25T13:34:38;7.60;99.90
46336;DHT22;31365;48.858;8.530;2023-02-25T13:37:19;7.50;99.90
46336;DHT22;31365;48.858;8.530;2023-02-25T13:41:29;7.50;99.90
46336;DHT22;31365;48.858;8.530;2023-02-25T13:44:30;7.70;99.90
46336;DHT22;31365;48.858;8.530;2023-02-25T13:47:27;8.00;99.90
46336;DHT22;31365;48.858;8.530;2023-02-25T13:50:23;9.40;99.90
46336;DHT22;31365;48.858;8.530;2023-02-25T13:53:16;10.10;99.90
46336;DHT22;31365;48.858;8.530;2023-02-25T13:56:13;9.80;99.90
46336;DHT22;31365;48.858;8.530;2023-02-25T13:59:17;9.50;99.90
46336;DHT22;31365;48.858;8.530;2023-02-25T14:05:43;8.90;99.90
46336;DHT22;31365;48.858;8.530;2023-02-25T14:08:41;8.80;99.90
46336;DHT22;31365;48.858;8.530;2023-02-25T14:11:37;9.30;99.90
46336;DHT22;31365;48.858;8.530;2023-02-25T14:17:45;8.40;99.90
46336;DHT22;31365;48.858;8.530;2023-02-25T14:20:41;8.30;99.90
46336;DHT22;31365;48.858;8.530;2023-02-25T14:23:27;8.30;99.90
46336;DHT22;31365;48.858;8.530;2023-02-25T14:26:25;8.50;99.90
46336;DHT22;31365;48.858;8.530;2023-02-25T14:29:14;8.90;99.90
46336;DHT22;31365;48.858;8.530;2023-02-25T14:32:17;9.80;99.90
46336;DHT22;31365;48.858;8.530;2023-02-25T14:35:17;9.60;99.90
46336;DHT22;31365;48.858;8.530;2023-02-25T14:38:09;9.60;99.90
46336;DHT22;31365;48.858;8.530;2023-02-25T14:40:45;9.40;99.90
46336;DHT22;31365;48.858;8.530;2023-02-25T14:43:28;9.30;99.90
46336;DHT22;31365;48.858;8.530;2023-02-25T14:46:13;9.20;99.90
46336;DHT22;31365;48.858;8.530;2023-02-25T14:48:59;9.20;99.90
46336;DHT22;31365;48.858;8.530;2023-02-25T14:58:29;8.50;99.90
46336;DHT22;31365;48.858;8.530;2023-02-25T15:01:26;8.90;99.90
46336;DHT22;31365;48.858;8.530;2023-02-25T15:05:09;8.10;99.90
46336;DHT22;31365;48.858;8.530;2023-02-25T15:15:05;7.70;99.90
46336;DHT22;31365;48.858;8.530;2023-02-25T15:18:15;7.70;99.90
46336;DHT22;31365;48.858;8.530;2023-02-25T15:21:33;7.80;99.90
46336;DHT22;31365;48.858;8.530;2023-02-25T15:24:36;7.80;99.90
46336;DHT22;31365;48.858;8.530;2023-02-25T15:27:45;7.90;99.90
46336;DHT22;31365;48.858;8.530;2023-02-25T15:30:24;7.60;99.90
46336;DHT22;31365;48.858;8.530;2023-02-25T15:33:11;7.70;99.90
46336;DHT22;31365;48.858;8.530;2023-02-25T15:35:59;7.80;99.90
46336;DHT22;31365;48.858;8.530;2023-02-25T15:38:43;8.00;99.90
46336;DHT22;31365;48.858;8.530;2023-02-25T15:41:40;8.10;99.90
46336;DHT22;31365;48.858;8.530;2023-02-25T15:44:34;8.00;99.90
46336;DHT22;31365;48.858;8.530;2023-02-25T15:47:27;7.80;99.90
46336;DHT22;31365;48.858;8.530;2023-02-25T15:49:58;7.90;99.90
46336;DHT22;31365;48.858;8.530;2023-02-25T15:52:55;7.70;99.90
46336;DHT22;31365;48.858;8.530;2023-02-25T15:55:34;7.50;99.90
46336;DHT22;31365;48.858;8.530;2023-02-25T15:58:42;7.30;99.90
46336;DHT22;31365;48.858;8.530;2023-02-25T16:01:41;7.10;99.90
46336;DHT22;31365;48.858;8.530;2023-02-25T16:04:41;7.00;99.90
46336;DHT22;31365;48.858;8.530;2023-02-25T16:07:17;7.00;99.90
46336;DHT22;31365;48.858;8.530;2023-02-25T16:09:57;8.20;99.90
46336;DHT22;31365;48.858;8.530;2023-02-25T16:12:28;6.90;99.90
46336;DHT22;31365;48.858;8.530;2023-02-25T16:15:00;6.70;99.90
46336;DHT22;31365;48.858;8.530;2023-02-25T16:17:33;6.80;99.90
46336;DHT22;31365;48.858;8.530;2023-02-25T16:20:11;5.90;99.90
46336;DHT22;31365;48.858;8.530;2023-02-25T16:22:55;6.20;99.90
46336;DHT22;31365;48.858;8.530;2023-02-25T16:25:47;6.20;99.90
46336;DHT22;31365;48.858;8.530;2023-02-25T16:28:31;6.70;99.90
46336;DHT22;31365;48.858;8.530;2023-02-25T16:31:16;6.00;99.90
46336;DHT22;31365;48.858;8.530;2023-02-25T16:33:52;5.60;99.90
46336;DHT22;31365;48.858;8.530;2023-02-25T16:36:34;6.00;99.90
46336;DHT22;31365;48.858;8.530;2023-02-25T16:39:13;6.40;99.90
46336;DHT22;31365;48.858;8.530;2023-02-25T16:41:51;6.10;99.90
46336;DHT22;31365;48.858;8.530;2023-02-25T16:44:27;6.20;99.90
46336;DHT22;31365;48.858;8.530;2023-02-25T16:47:04;6.20;99.90
46336;DHT22;31365;48.858;8.530;2023-02-25T16:49:50;6.20;99.90
46336;DHT22;31365;48.858;8.530;2023-02-25T16:52:27;6.20;99.90
46336;DHT22;31365;48.858;8.530;2023-02-25T16:54:59;6.70;99.90
46336;DHT22;31365;48.858;8.530;2023-02-25T16:57:33;6.10;99.90
46336;DHT22;31365;48.858;8.530;2023-02-25T17:00:22;6.20;99.90
46336;DHT22;31365;48.858;8.530;2023-02-25T17:02:57;5.70;99.90
46336;DHT22;31365;48.858;8.530;2023-02-25T17:05:30;5.40;99.90
46336;DHT22;31365;48.858;8.530;2023-02-25T17:08:03;5.10;99.90
46336;DHT22;31365;48.858;8.530;2023-02-25T17:10:51;5.40;99.90
46336;DHT22;31365;48.858;8.530;2023-02-25T17:13:33;5.50;99.90
46336;DHT22;31365;48.858;8.530;2023-02-25T17:16:17;4.70;99.90
46336;DHT22;31365;48.858;8.530;2023-02-25T17:19:20;5.70;99.90
46336;DHT22;31365;48.858;8.530;2023-02-25T17:21:58;5.40;99.90
46336;DHT22;31365;48.858;8.530;2023-02-25T17:24:49;4.60;99.90
46336;DHT22;31365;48.858;8.530;2023-02-25T17:27:42;4.60;99.90
46336;DHT22;31365;48.858;8.530;2023-02-25T17:30:39;5.10;99.90
46336;DHT22;31365;48.858;8.530;2023-02-25T17:33:20;4.60;99.90
46336;DHT22;31365;48.858;8.530;2023-02-25T17:36:09;4.80;99.90
46336;DHT22;31365;48.858;8.530;2023-02-25T17:38:43;4.40;99.90
46336;DHT22;31365;48.858;8.530;2023-02-25T17:41:23;3.80;99.90
46336;DHT22;31365;48.858;8.530;2023-02-25T17:43:57;4.50;99.90
46336;DHT22;31365;48.858;8.530;2023-02-25T17:46:40;4.90;99.90
46336;DHT22;31365;48.858;8.530;2023-02-25T17:49:38;5.10;99.90
46336;DHT22;31365;48.858;8.530;2023-02-25T17:52:31;4.60;99.90
46336;DHT22;31365;48.858;8.530;2023-02-25T17:55:26;4.50;99.90
46336;DHT22;31365;48.858;8.530;2023-02-25T17:58:04;4.80;99.90